sensor_id;sensor_type;location;lat;lon;timestamp;P1;P2;P0
49462;PMS5003;35357;51.722;0.500;2022-10-19T00:02:15;3;3;
49462;PMS5003;35357;51.722;0.500;2022-10-19T00:04:42;6;5;
49462;PMS5003;35357;51.722;0.500;2022-10-19T00:07:10;7;5;
49462;PMS5003;35357;51.722;0.500;2022-10-19T00:09:37;4;3;
49462;PMS5003;35357;51.722;0.500;2022-10-19T00:12:03;4;4;
49462;PMS5003;35357;51.722;0.500;2022-10-19T00:14:30;4;4;
49462;PMS5003;35357;51.722;0.500;2022-10-19T00:16:57;3;3;
49462;PMS5003;35357;51.722;0.500;2022-10-19T00:19:25;2;2;
49462;PMS5003;35357;51.722;0.500;2022-10-19T00:21:53;5;4;
49462;PMS5003;35357;51.722;0.500;2022-10-19T00:24:20;4;4;
49462;PMS5003;35357;51.722;0.500;2022-10-19T00:26:48;5;5;
49462;PMS5003;35357;51.722;0.500;2022-10-19T00:29:15;3;3;
49462;PMS5003;35357;51.722;0.500;2022-10-19T00:31:42;4;3;
49462;PMS5003;35357;51.722;0.500;2022-10-19T00:34:09;4;4;
49462;PMS5003;35357;51.722;0.500;2022-10-19T00:36:38;3;3;
49462;PMS5003;35357;51.722;0.500;2022-10-19T00:39:07;4;4;
49462;PMS5003;35357;51.722;0.500;2022-10-19T00:41:38;4;3;
49462;PMS5003;35357;51.722;0.500;2022-10-19T00:44:53;4;4;
49462;PMS5003;35357;51.722;0.500;2022-10-19T00:47:24;4;4;
49462;PMS5003;35357;51.722;0.500;2022-10-19T00:49:52;4;3;
49462;PMS5003;35357;51.722;0.500;2022-10-19T00:52:20;4;4;
49462;PMS5003;35357;51.722;0.500;2022-10-19T00:54:50;4;4;
49462;PMS5003;35357;51.722;0.500;2022-10-19T00:57:19;3;3;
49462;PMS5003;35357;51.722;0.500;2022-10-19T00:59:48;5;4;
49462;PMS5003;35357;51.722;0.500;2022-10-19T01:02:16;3;2;
49462;PMS5003;35357;51.722;0.500;2022-10-19T01:04:44;5;4;
49462;PMS5003;35357;51.722;0.500;2022-10-19T01:07:14;5;5;
49462;PMS5003;35357;51.722;0.500;2022-10-19T01:09:42;3;3;
49462;PMS5003;35357;51.722;0.500;2022-10-19T01:12:10;6;6;
49462;PMS5003;35357;51.722;0.500;2022-10-19T01:14:50;5;4;
49462;PMS5003;35357;51.722;0.500;2022-10-19T01:17:30;5;5;
49462;PMS5003;35357;51.722;0.500;2022-10-19T01:20:30;7;6;
49462;PMS5003;35357;51.722;0.500;2022-10-19T01:23:15;5;5;
49462;PMS5003;35357;51.722;0.500;2022-10-19T01:25:35;5;5;
49462;PMS5003;35357;51.722;0.500;2022-10-19T01:28:17;4;4;
49462;PMS5003;35357;51.722;0.500;2022-10-19T01:30:57;5;5;
49462;PMS5003;35357;51.722;0.500;2022-10-19T01:33:30;4;4;
49462;PMS5003;35357;51.722;0.500;2022-10-19T01:36:07;4;4;
49462;PMS5003;35357;51.722;0.500;2022-10-19T01:38:45;5;4;
49462;PMS5003;35357;51.722;0.500;2022-10-19T01:41:19;6;5;
49462;PMS5003;35357;51.722;0.500;2022-10-19T01:43:54;5;5;
49462;PMS5003;35357;51.722;0.500;2022-10-19T01:46:26;3;3;
49462;PMS5003;35357;51.722;0.500;2022-10-19T01:49:01;5;5;
49462;PMS5003;35357;51.722;0.500;2022-10-19T01:51:33;7;6;
49462;PMS5003;35357;51.722;0.500;2022-10-19T01:54:06;5;5;
49462;PMS5003;35357;51.722;0.500;2022-10-19T01:56:37;7;7;
49462;PMS5003;35357;51.722;0.500;2022-10-19T01:59:06;5;5;
49462;PMS5003;35357;51.722;0.500;2022-10-19T02:01:38;11;11;
49462;PMS5003;35357;51.722;0.500;2022-10-19T02:04:10;8;7;
49462;PMS5003;35357;51.722;0.500;2022-10-19T02:06:41;7;7;
49462;PMS5003;35357;51.722;0.500;2022-10-19T02:09:09;13;12;
49462;PMS5003;35357;51.722;0.500;2022-10-19T02:11:37;15;15;
49462;PMS5003;35357;51.722;0.500;2022-10-19T02:14:05;12;12;
49462;PMS5003;35357;51.722;0.500;2022-10-19T02:16:39;18;16;
49462;PMS5003;35357;51.722;0.500;2022-10-19T02:19:13;13;13;
49462;PMS5003;35357;51.722;0.500;2022-10-19T02:21:43;17;17;
49462;PMS5003;35357;51.722;0.500;2022-10-19T02:24:10;21;19;
49462;PMS5003;35357;51.722;0.500;2022-10-19T02:26:37;17;17;
49462;PMS5003;35357;51.722;0.500;2022-10-19T02:29:06;16;15;
49462;PMS5003;35357;51.722;0.500;2022-10-19T02:31:35;17;16;
49462;PMS5003;35357;51.722;0.500;2022-10-19T02:34:03;15;15;
49462;PMS5003;35357;51.722;0.500;2022-10-19T02:36:30;18;17;
49462;PMS5003;35357;51.722;0.500;2022-10-19T02:38:57;10;10;
49462;PMS5003;35357;51.722;0.500;2022-10-19T02:41:26;17;17;
49462;PMS5003;35357;51.722;0.500;2022-10-19T02:43:59;15;15;
49462;PMS5003;35357;51.722;0.500;2022-10-19T02:46:31;15;14;
49462;PMS5003;35357;51.722;0.500;2022-10-19T02:49:03;13;12;
49462;PMS5003;35357;51.722;0.500;2022-10-19T02:51:34;19;18;
49462;PMS5003;35357;51.722;0.500;2022-10-19T02:54:03;12;12;
49462;PMS5003;35357;51.722;0.500;2022-10-19T02:56:32;11;10;
49462;PMS5003;35357;51.722;0.500;2022-10-19T02:59:00;11;11;
49462;PMS5003;35357;51.722;0.500;2022-10-19T03:01:28;10;10;
49462;PMS5003;35357;51.722;0.500;2022-10-19T03:03:55;6;6;
49462;PMS5003;35357;51.722;0.500;2022-10-19T03:06:21;8;8;
49462;PMS5003;35357;51.722;0.500;2022-10-19T03:08:48;8;8;
49462;PMS5003;35357;51.722;0.500;2022-10-19T03:11:16;10;7;
49462;PMS5003;35357;51.722;0.500;2022-10-19T03:13:43;9;7;
49462;PMS5003;35357;51.722;0.500;2022-10-19T03:16:10;7;7;
49462;PMS5003;35357;51.722;0.500;2022-10-19T03:18:38;7;6;
49462;PMS5003;35357;51.722;0.500;2022-10-19T03:21:07;6;6;
49462;PMS5003;35357;51.722;0.500;2022-10-19T03:23:37;5;5;
49462;PMS5003;35357;51.722;0.500;2022-10-19T03:26:05;6;5;
49462;PMS5003;35357;51.722;0.500;2022-10-19T03:28:33;6;6;
49462;PMS5003;35357;51.722;0.500;2022-10-19T03:31:00;5;4;
49462;PMS5003;35357;51.722;0.500;2022-10-19T03:33:27;5;5;
49462;PMS5003;35357;51.722;0.500;2022-10-19T03:36:12;3;3;
49462;PMS5003;35357;51.722;0.500;2022-10-19T03:38:42;4;4;
49462;PMS5003;35357;51.722;0.500;2022-10-19T03:41:09;4;4;
49462;PMS5003;35357;51.722;0.500;2022-10-19T03:43:36;7;6;
49462;PMS5003;35357;51.722;0.500;2022-10-19T03:46:03;2;2;
49462;PMS5003;35357;51.722;0.500;2022-10-19T03:48:31;6;5;
49462;PMS5003;35357;51.722;0.500;2022-10-19T03:50:59;4;4;
49462;PMS5003;35357;51.722;0.500;2022-10-19T03:53:27;4;4;
49462;PMS5003;35357;51.722;0.500;2022-10-19T03:55:59;5;5;
49462;PMS5003;35357;51.722;0.500;2022-10-19T03:58:27;4;3;
49462;PMS5003;35357;51.722;0.500;2022-10-19T04:00:54;2;2;
49462;PMS5003;35357;51.722;0.500;2022-10-19T04:03:21;7;7;
49462;PMS5003;35357;51.722;0.500;2022-10-19T04:05:48;7;5;
49462;PMS5003;35357;51.722;0.500;2022-10-19T04:08:15;4;3;
49462;PMS5003;35357;51.722;0.500;2022-10-19T04:10:42;4;4;
49462;PMS5003;35357;51.722;0.500;2022-10-19T04:13:09;4;4;
49462;PMS5003;35357;51.722;0.500;2022-10-19T04:15:36;3;3;
49462;PMS5003;35357;51.722;0.500;2022-10-19T04:18:03;4;3;
49462;PMS5003;35357;51.722;0.500;2022-10-19T04:20:31;7;7;
49462;PMS5003;35357;51.722;0.500;2022-10-19T04:22:58;4;4;
49462;PMS5003;35357;51.722;0.500;2022-10-19T04:25:24;3;3;
49462;PMS5003;35357;51.722;0.500;2022-10-19T04:27:52;4;4;
49462;PMS5003;35357;51.722;0.500;2022-10-19T04:30:19;4;4;
49462;PMS5003;35357;51.722;0.500;2022-10-19T04:32:46;6;6;
49462;PMS5003;35357;51.722;0.500;2022-10-19T04:35:13;5;5;
49462;PMS5003;35357;51.722;0.500;2022-10-19T04:37:40;6;6;
49462;PMS5003;35357;51.722;0.500;2022-10-19T04:40:07;6;6;
49462;PMS5003;35357;51.722;0.500;2022-10-19T04:42:35;7;7;
49462;PMS5003;35357;51.722;0.500;2022-10-19T04:45:03;6;6;
49462;PMS5003;35357;51.722;0.500;2022-10-19T04:47:31;5;5;
49462;PMS5003;35357;51.722;0.500;2022-10-19T04:49:57;7;6;
49462;PMS5003;35357;51.722;0.500;2022-10-19T04:52:24;8;8;
49462;PMS5003;35357;51.722;0.500;2022-10-19T04:54:52;6;5;
49462;PMS5003;35357;51.722;0.500;2022-10-19T04:57:19;6;6;
49462;PMS5003;35357;51.722;0.500;2022-10-19T04:59:46;8;7;
49462;PMS5003;35357;51.722;0.500;2022-10-19T05:02:13;4;4;
49462;PMS5003;35357;51.722;0.500;2022-10-19T05:04:40;7;7;
49462;PMS5003;35357;51.722;0.500;2022-10-19T05:07:07;6;6;
49462;PMS5003;35357;51.722;0.500;2022-10-19T05:09:34;7;7;
49462;PMS5003;35357;51.722;0.500;2022-10-19T05:12:01;6;6;
49462;PMS5003;35357;51.722;0.500;2022-10-19T05:14:28;7;7;
49462;PMS5003;35357;51.722;0.500;2022-10-19T05:16:58;9;9;
49462;PMS5003;35357;51.722;0.500;2022-10-19T05:19:25;9;8;
49462;PMS5003;35357;51.722;0.500;2022-10-19T05:21:53;6;6;
49462;PMS5003;35357;51.722;0.500;2022-10-19T05:24:20;13;10;
49462;PMS5003;35357;51.722;0.500;2022-10-19T05:26:47;7;6;
49462;PMS5003;35357;51.722;0.500;2022-10-19T05:29:14;7;7;
49462;PMS5003;35357;51.722;0.500;2022-10-19T05:31:41;6;6;
49462;PMS5003;35357;51.722;0.500;2022-10-19T05:34:08;7;6;
49462;PMS5003;35357;51.722;0.500;2022-10-19T05:36:36;7;6;
49462;PMS5003;35357;51.722;0.500;2022-10-19T05:39:05;9;8;
49462;PMS5003;35357;51.722;0.500;2022-10-19T05:41:34;9;8;
49462;PMS5003;35357;51.722;0.500;2022-10-19T05:44:02;8;8;
49462;PMS5003;35357;51.722;0.500;2022-10-19T05:46:31;7;7;
49462;PMS5003;35357;51.722;0.500;2022-10-19T05:48:58;7;7;
49462;PMS5003;35357;51.722;0.500;2022-10-19T05:51:27;8;7;
49462;PMS5003;35357;51.722;0.500;2022-10-19T05:53:55;8;7;
49462;PMS5003;35357;51.722;0.500;2022-10-19T05:56:22;10;9;
49462;PMS5003;35357;51.722;0.500;2022-10-19T05:58:52;8;7;
49462;PMS5003;35357;51.722;0.500;2022-10-19T06:01:21;10;10;
49462;PMS5003;35357;51.722;0.500;2022-10-19T06:03:50;7;7;
49462;PMS5003;35357;51.722;0.500;2022-10-19T06:06:18;6;6;
49462;PMS5003;35357;51.722;0.500;2022-10-19T06:08:45;4;4;
49462;PMS5003;35357;51.722;0.500;2022-10-19T06:11:15;6;6;
49462;PMS5003;35357;51.722;0.500;2022-10-19T06:13:43;5;5;
49462;PMS5003;35357;51.722;0.500;2022-10-19T06:16:13;7;7;
49462;PMS5003;35357;51.722;0.500;2022-10-19T06:18:42;7;6;
49462;PMS5003;35357;51.722;0.500;2022-10-19T06:21:10;9;9;
49462;PMS5003;35357;51.722;0.500;2022-10-19T06:23:38;7;6;
49462;PMS5003;35357;51.722;0.500;2022-10-19T06:26:07;8;6;
49462;PMS5003;35357;51.722;0.500;2022-10-19T06:28:36;6;5;
49462;PMS5003;35357;51.722;0.500;2022-10-19T06:31:04;6;6;
49462;PMS5003;35357;51.722;0.500;2022-10-19T06:33:32;6;6;
49462;PMS5003;35357;51.722;0.500;2022-10-19T06:36:04;4;4;
49462;PMS5003;35357;51.722;0.500;2022-10-19T06:38:31;4;4;
49462;PMS5003;35357;51.722;0.500;2022-10-19T06:40:58;6;5;
49462;PMS5003;35357;51.722;0.500;2022-10-19T06:43:26;7;7;
49462;PMS5003;35357;51.722;0.500;2022-10-19T06:45:54;7;7;
49462;PMS5003;35357;51.722;0.500;2022-10-19T06:48:22;9;8;
49462;PMS5003;35357;51.722;0.500;2022-10-19T06:50:54;5;5;
49462;PMS5003;35357;51.722;0.500;2022-10-19T06:53:22;8;6;
49462;PMS5003;35357;51.722;0.500;2022-10-19T06:55:49;6;6;
49462;PMS5003;35357;51.722;0.500;2022-10-19T06:58:16;8;8;
49462;PMS5003;35357;51.722;0.500;2022-10-19T07:00:42;6;5;
49462;PMS5003;35357;51.722;0.500;2022-10-19T07:03:09;6;6;
49462;PMS5003;35357;51.722;0.500;2022-10-19T07:05:36;7;7;
49462;PMS5003;35357;51.722;0.500;2022-10-19T07:08:03;8;7;
49462;PMS5003;35357;51.722;0.500;2022-10-19T07:10:30;8;8;
49462;PMS5003;35357;51.722;0.500;2022-10-19T07:12:57;5;5;
49462;PMS5003;35357;51.722;0.500;2022-10-19T07:15:24;7;6;
49462;PMS5003;35357;51.722;0.500;2022-10-19T07:17:51;9;8;
49462;PMS5003;35357;51.722;0.500;2022-10-19T07:20:19;5;5;
49462;PMS5003;35357;51.722;0.500;2022-10-19T07:22:46;7;6;
49462;PMS5003;35357;51.722;0.500;2022-10-19T07:25:13;7;5;
49462;PMS5003;35357;51.722;0.500;2022-10-19T07:27:40;9;8;
49462;PMS5003;35357;51.722;0.500;2022-10-19T07:30:07;7;7;
49462;PMS5003;35357;51.722;0.500;2022-10-19T07:32:34;5;4;
49462;PMS5003;35357;51.722;0.500;2022-10-19T07:35:02;5;4;
49462;PMS5003;35357;51.722;0.500;2022-10-19T07:37:30;7;6;
49462;PMS5003;35357;51.722;0.500;2022-10-19T07:39:57;5;5;
49462;PMS5003;35357;51.722;0.500;2022-10-19T07:42:24;9;8;
49462;PMS5003;35357;51.722;0.500;2022-10-19T07:44:53;6;6;
49462;PMS5003;35357;51.722;0.500;2022-10-19T07:47:21;6;5;
49462;PMS5003;35357;51.722;0.500;2022-10-19T07:49:47;5;4;
49462;PMS5003;35357;51.722;0.500;2022-10-19T07:52:14;3;3;
49462;PMS5003;35357;51.722;0.500;2022-10-19T07:54:42;7;7;
49462;PMS5003;35357;51.722;0.500;2022-10-19T07:57:10;7;5;
49462;PMS5003;35357;51.722;0.500;2022-10-19T07:59:37;3;3;
49462;PMS5003;35357;51.722;0.500;2022-10-19T08:02:04;9;8;
49462;PMS5003;35357;51.722;0.500;2022-10-19T08:04:38;7;6;
49462;PMS5003;35357;51.722;0.500;2022-10-19T08:07:05;6;6;
49462;PMS5003;35357;51.722;0.500;2022-10-19T08:09:32;7;6;
49462;PMS5003;35357;51.722;0.500;2022-10-19T08:11:59;4;4;
49462;PMS5003;35357;51.722;0.500;2022-10-19T08:14:26;6;6;
49462;PMS5003;35357;51.722;0.500;2022-10-19T08:16:54;5;5;
49462;PMS5003;35357;51.722;0.500;2022-10-19T08:19:21;4;4;
49462;PMS5003;35357;51.722;0.500;2022-10-19T08:21:49;5;4;
49462;PMS5003;35357;51.722;0.500;2022-10-19T08:24:17;8;5;
49462;PMS5003;35357;51.722;0.500;2022-10-19T08:26:45;6;6;
49462;PMS5003;35357;51.722;0.500;2022-10-19T08:29:14;6;5;
49462;PMS5003;35357;51.722;0.500;2022-10-19T08:31:43;6;5;
49462;PMS5003;35357;51.722;0.500;2022-10-19T08:34:12;9;7;
49462;PMS5003;35357;51.722;0.500;2022-10-19T08:36:39;9;9;
49462;PMS5003;35357;51.722;0.500;2022-10-19T08:39:07;8;6;
49462;PMS5003;35357;51.722;0.500;2022-10-19T08:41:36;7;6;
49462;PMS5003;35357;51.722;0.500;2022-10-19T08:44:21;8;7;
49462;PMS5003;35357;51.722;0.500;2022-10-19T08:46:58;4;4;
49462;PMS5003;35357;51.722;0.500;2022-10-19T08:49:31;5;5;
49462;PMS5003;35357;51.722;0.500;2022-10-19T08:51:59;4;4;
49462;PMS5003;35357;51.722;0.500;2022-10-19T08:54:35;4;4;
49462;PMS5003;35357;51.722;0.500;2022-10-19T08:57:10;6;6;
49462;PMS5003;35357;51.722;0.500;2022-10-19T08:59:51;8;7;
49462;PMS5003;35357;51.722;0.500;2022-10-19T09:02:33;5;5;
49462;PMS5003;35357;51.722;0.500;2022-10-19T09:05:12;4;4;
49462;PMS5003;35357;51.722;0.500;2022-10-19T09:07:46;6;6;
49462;PMS5003;35357;51.722;0.500;2022-10-19T09:10:18;5;5;
49462;PMS5003;35357;51.722;0.500;2022-10-19T09:12:50;5;5;
49462;PMS5003;35357;51.722;0.500;2022-10-19T09:15:24;5;5;
49462;PMS5003;35357;51.722;0.500;2022-10-19T09:17:54;7;6;
49462;PMS5003;35357;51.722;0.500;2022-10-19T09:20:22;4;4;
49462;PMS5003;35357;51.722;0.500;2022-10-19T09:22:58;6;6;
49462;PMS5003;35357;51.722;0.500;2022-10-19T09:25:29;5;4;
49462;PMS5003;35357;51.722;0.500;2022-10-19T09:28:01;7;7;
49462;PMS5003;35357;51.722;0.500;2022-10-19T09:30:38;7;7;
49462;PMS5003;35357;51.722;0.500;2022-10-19T09:33:10;6;6;
49462;PMS5003;35357;51.722;0.500;2022-10-19T09:35:44;7;7;
49462;PMS5003;35357;51.722;0.500;2022-10-19T09:38:14;6;6;
49462;PMS5003;35357;51.722;0.500;2022-10-19T09:40:42;6;6;
49462;PMS5003;35357;51.722;0.500;2022-10-19T09:43:10;8;8;
49462;PMS5003;35357;51.722;0.500;2022-10-19T09:45:38;8;7;
49462;PMS5003;35357;51.722;0.500;2022-10-19T09:48:13;4;4;
49462;PMS5003;35357;51.722;0.500;2022-10-19T09:50:48;6;5;
49462;PMS5003;35357;51.722;0.500;2022-10-19T09:53:21;6;6;
49462;PMS5003;35357;51.722;0.500;2022-10-19T09:55:50;7;6;
49462;PMS5003;35357;51.722;0.500;2022-10-19T09:58:24;7;7;
49462;PMS5003;35357;51.722;0.500;2022-10-19T10:00:54;7;6;
49462;PMS5003;35357;51.722;0.500;2022-10-19T10:03:23;7;7;
49462;PMS5003;35357;51.722;0.500;2022-10-19T10:05:54;6;5;
49462;PMS5003;35357;51.722;0.500;2022-10-19T10:08:25;6;6;
49462;PMS5003;35357;51.722;0.500;2022-10-19T10:10:56;6;6;
49462;PMS5003;35357;51.722;0.500;2022-10-19T10:13:34;11;8;
49462;PMS5003;35357;51.722;0.500;2022-10-19T10:16:03;7;6;
49462;PMS5003;35357;51.722;0.500;2022-10-19T10:18:34;7;7;
49462;PMS5003;35357;51.722;0.500;2022-10-19T10:21:10;7;7;
49462;PMS5003;35357;51.722;0.500;2022-10-19T10:23:39;7;7;
49462;PMS5003;35357;51.722;0.500;2022-10-19T10:26:15;7;7;
49462;PMS5003;35357;51.722;0.500;2022-10-19T10:28:45;8;7;
49462;PMS5003;35357;51.722;0.500;2022-10-19T10:31:14;6;6;
49462;PMS5003;35357;51.722;0.500;2022-10-19T10:33:45;5;5;
49462;PMS5003;35357;51.722;0.500;2022-10-19T10:36:22;4;4;
49462;PMS5003;35357;51.722;0.500;2022-10-19T10:38:53;8;8;
49462;PMS5003;35357;51.722;0.500;2022-10-19T10:41:25;5;5;
49462;PMS5003;35357;51.722;0.500;2022-10-19T10:43:57;7;5;
49462;PMS5003;35357;51.722;0.500;2022-10-19T10:46:27;6;6;
49462;PMS5003;35357;51.722;0.500;2022-10-19T10:49:00;6;6;
49462;PMS5003;35357;51.722;0.500;2022-10-19T10:51:31;5;5;
49462;PMS5003;35357;51.722;0.500;2022-10-19T10:54:08;4;4;
49462;PMS5003;35357;51.722;0.500;2022-10-19T10:56:43;9;6;
49462;PMS5003;35357;51.722;0.500;2022-10-19T10:59:27;5;5;
49462;PMS5003;35357;51.722;0.500;2022-10-19T11:02:00;6;5;
49462;PMS5003;35357;51.722;0.500;2022-10-19T11:04:31;5;5;
49462;PMS5003;35357;51.722;0.500;2022-10-19T11:07:07;6;6;
49462;PMS5003;35357;51.722;0.500;2022-10-19T11:09:43;5;5;
49462;PMS5003;35357;51.722;0.500;2022-10-19T11:12:16;4;4;
49462;PMS5003;35357;51.722;0.500;2022-10-19T11:15:01;8;6;
49462;PMS5003;35357;51.722;0.500;2022-10-19T11:17:36;6;5;
49462;PMS5003;35357;51.722;0.500;2022-10-19T11:20:17;4;4;
49462;PMS5003;35357;51.722;0.500;2022-10-19T11:22:45;5;4;
49462;PMS5003;35357;51.722;0.500;2022-10-19T11:25:21;5;5;
49462;PMS5003;35357;51.722;0.500;2022-10-19T11:28:00;3;3;
49462;PMS5003;35357;51.722;0.500;2022-10-19T11:30:46;5;5;
49462;PMS5003;35357;51.722;0.500;2022-10-19T11:33:27;5;4;
49462;PMS5003;35357;51.722;0.500;2022-10-19T11:36:08;8;8;
49462;PMS5003;35357;51.722;0.500;2022-10-19T11:38:47;4;4;
49462;PMS5003;35357;51.722;0.500;2022-10-19T11:41:26;8;7;
49462;PMS5003;35357;51.722;0.500;2022-10-19T11:44:14;5;5;
49462;PMS5003;35357;51.722;0.500;2022-10-19T11:46:57;11;8;
49462;PMS5003;35357;51.722;0.500;2022-10-19T11:49:41;6;6;
49462;PMS5003;35357;51.722;0.500;2022-10-19T11:52:17;6;5;
49462;PMS5003;35357;51.722;0.500;2022-10-19T11:54:56;4;4;
49462;PMS5003;35357;51.722;0.500;2022-10-19T11:57:29;7;6;
49462;PMS5003;35357;51.722;0.500;2022-10-19T12:00:04;3;3;
49462;PMS5003;35357;51.722;0.500;2022-10-19T12:02:47;6;6;
49462;PMS5003;35357;51.722;0.500;2022-10-19T12:05:41;5;5;
49462;PMS5003;35357;51.722;0.500;2022-10-19T12:08:23;5;5;
49462;PMS5003;35357;51.722;0.500;2022-10-19T12:11:01;6;6;
49462;PMS5003;35357;51.722;0.500;2022-10-19T12:13:38;4;3;
49462;PMS5003;35357;51.722;0.500;2022-10-19T12:16:10;5;4;
49462;PMS5003;35357;51.722;0.500;2022-10-19T12:18:40;4;4;
49462;PMS5003;35357;51.722;0.500;2022-10-19T12:21:13;5;5;
49462;PMS5003;35357;51.722;0.500;2022-10-19T12:23:45;4;4;
49462;PMS5003;35357;51.722;0.500;2022-10-19T12:26:14;5;5;
49462;PMS5003;35357;51.722;0.500;2022-10-19T12:28:45;5;4;
49462;PMS5003;35357;51.722;0.500;2022-10-19T12:31:15;6;5;
49462;PMS5003;35357;51.722;0.500;2022-10-19T12:33:44;4;4;
49462;PMS5003;35357;51.722;0.500;2022-10-19T12:36:21;6;5;
49462;PMS5003;35357;51.722;0.500;2022-10-19T12:38:58;5;5;
49462;PMS5003;35357;51.722;0.500;2022-10-19T12:41:35;2;2;
49462;PMS5003;35357;51.722;0.500;2022-10-19T12:44:21;9;8;
49462;PMS5003;35357;51.722;0.500;2022-10-19T12:47:07;6;6;
49462;PMS5003;35357;51.722;0.500;2022-10-19T12:49:42;3;3;
49462;PMS5003;35357;51.722;0.500;2022-10-19T12:52:11;5;4;
49462;PMS5003;35357;51.722;0.500;2022-10-19T12:54:39;5;4;
49462;PMS5003;35357;51.722;0.500;2022-10-19T12:57:25;6;5;
49462;PMS5003;35357;51.722;0.500;2022-10-19T12:59:57;4;4;
49462;PMS5003;35357;51.722;0.500;2022-10-19T13:02:27;5;4;
49462;PMS5003;35357;51.722;0.500;2022-10-19T13:04:57;3;3;
49462;PMS5003;35357;51.722;0.500;2022-10-19T13:07:25;4;4;
49462;PMS5003;35357;51.722;0.500;2022-10-19T13:09:58;4;4;
49462;PMS5003;35357;51.722;0.500;2022-10-19T13:12:28;4;4;
49462;PMS5003;35357;51.722;0.500;2022-10-19T13:15:47;5;5;
49462;PMS5003;35357;51.722;0.500;2022-10-19T13:18:59;3;3;
49462;PMS5003;35357;51.722;0.500;2022-10-19T13:22:34;4;4;
49462;PMS5003;35357;51.722;0.500;2022-10-19T13:25:18;4;3;
49462;PMS5003;35357;51.722;0.500;2022-10-19T13:27:47;4;4;
49462;PMS5003;35357;51.722;0.500;2022-10-19T13:32:34;3;3;
49462;PMS5003;35357;51.722;0.500;2022-10-19T13:35:22;4;3;
49462;PMS5003;35357;51.722;0.500;2022-10-19T13:38:18;5;4;
49462;PMS5003;35357;51.722;0.500;2022-10-19T13:41:06;4;4;
49462;PMS5003;35357;51.722;0.500;2022-10-19T13:43:38;4;3;
49462;PMS5003;35357;51.722;0.500;2022-10-19T13:46:15;4;3;
49462;PMS5003;35357;51.722;0.500;2022-10-19T13:48:54;4;4;
49462;PMS5003;35357;51.722;0.500;2022-10-19T13:52:05;4;4;
49462;PMS5003;35357;51.722;0.500;2022-10-19T13:54:52;4;4;
49462;PMS5003;35357;51.722;0.500;2022-10-19T13:57:40;7;6;
49462;PMS5003;35357;51.722;0.500;2022-10-19T14:00:18;4;4;
49462;PMS5003;35357;51.722;0.500;2022-10-19T14:02:54;5;4;
49462;PMS5003;35357;51.722;0.500;2022-10-19T14:05:33;5;4;
49462;PMS5003;35357;51.722;0.500;2022-10-19T14:08:16;4;4;
49462;PMS5003;35357;51.722;0.500;2022-10-19T14:10:57;4;4;
49462;PMS5003;35357;51.722;0.500;2022-10-19T14:13:27;4;4;
49462;PMS5003;35357;51.722;0.500;2022-10-19T14:15:56;6;6;
49462;PMS5003;35357;51.722;0.500;2022-10-19T14:18:26;6;6;
49462;PMS5003;35357;51.722;0.500;2022-10-19T14:20:56;3;3;
49462;PMS5003;35357;51.722;0.500;2022-10-19T14:23:25;4;3;
49462;PMS5003;35357;51.722;0.500;2022-10-19T14:25:54;4;4;
49462;PMS5003;35357;51.722;0.500;2022-10-19T14:28:24;5;4;
49462;PMS5003;35357;51.722;0.500;2022-10-19T14:30:54;4;4;
49462;PMS5003;35357;51.722;0.500;2022-10-19T14:33:23;3;3;
49462;PMS5003;35357;51.722;0.500;2022-10-19T14:35:52;4;3;
49462;PMS5003;35357;51.722;0.500;2022-10-19T14:38:23;5;5;
49462;PMS5003;35357;51.722;0.500;2022-10-19T14:40:55;7;5;
49462;PMS5003;35357;51.722;0.500;2022-10-19T14:43:22;2;2;
49462;PMS5003;35357;51.722;0.500;2022-10-19T14:46:23;3;3;
49462;PMS5003;35357;51.722;0.500;2022-10-19T14:48:52;5;4;
49462;PMS5003;35357;51.722;0.500;2022-10-19T14:51:28;4;4;
49462;PMS5003;35357;51.722;0.500;2022-10-19T14:54:02;6;5;
49462;PMS5003;35357;51.722;0.500;2022-10-19T14:56:35;4;4;
49462;PMS5003;35357;51.722;0.500;2022-10-19T14:59:13;4;4;
49462;PMS5003;35357;51.722;0.500;2022-10-19T15:01:49;4;3;
49462;PMS5003;35357;51.722;0.500;2022-10-19T15:04:18;4;3;
49462;PMS5003;35357;51.722;0.500;2022-10-19T15:06:48;4;4;
49462;PMS5003;35357;51.722;0.500;2022-10-19T15:09:17;5;5;
49462;PMS5003;35357;51.722;0.500;2022-10-19T15:11:51;3;3;
49462;PMS5003;35357;51.722;0.500;2022-10-19T15:14:20;4;4;
49462;PMS5003;35357;51.722;0.500;2022-10-19T15:16:52;4;3;
49462;PMS5003;35357;51.722;0.500;2022-10-19T15:19:24;4;4;
49462;PMS5003;35357;51.722;0.500;2022-10-19T15:22:58;5;5;
49462;PMS5003;35357;51.722;0.500;2022-10-19T15:25:28;5;5;
49462;PMS5003;35357;51.722;0.500;2022-10-19T15:28:17;5;5;
49462;PMS5003;35357;51.722;0.500;2022-10-19T15:30:56;6;5;
49462;PMS5003;35357;51.722;0.500;2022-10-19T15:33:24;6;6;
49462;PMS5003;35357;51.722;0.500;2022-10-19T15:36:02;6;5;
49462;PMS5003;35357;51.722;0.500;2022-10-19T15:38:32;4;3;
49462;PMS5003;35357;51.722;0.500;2022-10-19T15:40:59;6;6;
49462;PMS5003;35357;51.722;0.500;2022-10-19T15:43:33;7;6;
49462;PMS5003;35357;51.722;0.500;2022-10-19T15:46:03;7;7;
49462;PMS5003;35357;51.722;0.500;2022-10-19T15:48:47;5;5;
49462;PMS5003;35357;51.722;0.500;2022-10-19T15:51:48;9;7;
49462;PMS5003;35357;51.722;0.500;2022-10-19T15:54:17;6;5;
49462;PMS5003;35357;51.722;0.500;2022-10-19T15:56:45;4;4;
49462;PMS5003;35357;51.722;0.500;2022-10-19T15:59:16;7;6;
49462;PMS5003;35357;51.722;0.500;2022-10-19T16:01:45;5;4;
49462;PMS5003;35357;51.722;0.500;2022-10-19T16:04:13;8;7;
49462;PMS5003;35357;51.722;0.500;2022-10-19T16:06:42;6;5;
49462;PMS5003;35357;51.722;0.500;2022-10-19T16:09:13;7;7;
49462;PMS5003;35357;51.722;0.500;2022-10-19T16:11:43;7;7;
49462;PMS5003;35357;51.722;0.500;2022-10-19T16:14:10;7;5;
49462;PMS5003;35357;51.722;0.500;2022-10-19T16:16:37;5;4;
49462;PMS5003;35357;51.722;0.500;2022-10-19T16:19:04;8;8;
49462;PMS5003;35357;51.722;0.500;2022-10-19T16:21:33;5;5;
49462;PMS5003;35357;51.722;0.500;2022-10-19T16:24:02;7;6;
49462;PMS5003;35357;51.722;0.500;2022-10-19T16:26:29;5;5;
49462;PMS5003;35357;51.722;0.500;2022-10-19T16:28:56;5;5;
49462;PMS5003;35357;51.722;0.500;2022-10-19T16:31:24;8;7;
49462;PMS5003;35357;51.722;0.500;2022-10-19T16:33:51;9;8;
49462;PMS5003;35357;51.722;0.500;2022-10-19T16:36:19;7;7;
49462;PMS5003;35357;51.722;0.500;2022-10-19T16:38:46;6;5;
49462;PMS5003;35357;51.722;0.500;2022-10-19T16:41:14;6;6;
49462;PMS5003;35357;51.722;0.500;2022-10-19T16:43:41;5;5;
49462;PMS5003;35357;51.722;0.500;2022-10-19T16:46:09;7;6;
49462;PMS5003;35357;51.722;0.500;2022-10-19T16:48:37;9;7;
49462;PMS5003;35357;51.722;0.500;2022-10-19T16:51:37;11;10;
49462;PMS5003;35357;51.722;0.500;2022-10-19T16:54:06;6;6;
49462;PMS5003;35357;51.722;0.500;2022-10-19T16:56:35;8;8;
49462;PMS5003;35357;51.722;0.500;2022-10-19T16:59:08;3;3;
49462;PMS5003;35357;51.722;0.500;2022-10-19T17:01:37;8;7;
49462;PMS5003;35357;51.722;0.500;2022-10-19T17:04:04;7;7;
49462;PMS5003;35357;51.722;0.500;2022-10-19T17:06:32;9;9;
49462;PMS5003;35357;51.722;0.500;2022-10-19T17:08:59;9;9;
49462;PMS5003;35357;51.722;0.500;2022-10-19T17:11:27;8;6;
49462;PMS5003;35357;51.722;0.500;2022-10-19T17:13:57;10;9;
49462;PMS5003;35357;51.722;0.500;2022-10-19T17:16:27;9;9;
49462;PMS5003;35357;51.722;0.500;2022-10-19T17:18:59;9;8;
49462;PMS5003;35357;51.722;0.500;2022-10-19T17:21:28;10;9;
49462;PMS5003;35357;51.722;0.500;2022-10-19T17:23:57;8;7;